sensor_id;sensor_type;location;lat;lon;timestamp;temperature;humidity
1506;DHT22;744;51.436;7.356;2023-02-13T22:22:19;6.50;62.00
1506;DHT22;744;51.436;7.356;2023-02-13T22:24:46;6.50;63.60
1506;DHT22;744;51.436;7.356;2023-02-13T22:27:13;6.80;65.00
1506;DHT22;744;51.436;7.356;2023-02-13T22:29:40;7.20;65.20
1506;DHT22;744;51.436;7.356;2023-02-13T22:32:06;7.60;65.10
1506;DHT22;744;51.436;7.356;2023-02-13T22:34:33;7.90;64.80
1506;DHT22;744;51.436;7.356;2023-02-13T22:37:00;8.30;64.30
1506;DHT22;744;51.436;7.356;2023-02-13T22:39:27;8.60;64.60
1506;DHT22;744;51.436;7.356;2023-02-13T22:41:57;8.70;64.00
1506;DHT22;744;51.436;7.356;2023-02-13T22:44:23;8.90;63.20
1506;DHT22;744;51.436;7.356;2023-02-13T22:46:50;9.00;63.00
1506;DHT22;744;51.436;7.356;2023-02-13T22:49:17;9.10;62.50
1506;DHT22;744;51.436;7.356;2023-02-13T22:51:43;9.30;62.00
1506;DHT22;744;51.436;7.356;2023-02-13T22:54:10;9.40;61.70
1506;DHT22;744;51.436;7.356;2023-02-13T22:56:37;9.40;61.30
1506;DHT22;744;51.436;7.356;2023-02-13T22:59:04;9.50;60.90
1506;DHT22;744;51.436;7.356;2023-02-13T23:01:30;9.50;60.60
1506;DHT22;744;51.436;7.356;2023-02-13T23:03:57;9.50;60.30
1506;DHT22;744;51.436;7.356;2023-02-13T23:06:24;9.50;60.10
1506;DHT22;744;51.436;7.356;2023-02-13T23:08:52;9.40;59.70
1506;DHT22;744;51.436;7.356;2023-02-13T23:11:21;9.50;59.60
1506;DHT22;744;51.436;7.356;2023-02-13T23:14:07;9.50;59.40
1506;DHT22;744;51.436;7.356;2023-02-13T23:16:37;9.50;59.10
1506;DHT22;744;51.436;7.356;2023-02-13T23:19:22;9.50;58.90
1506;DHT22;744;51.436;7.356;2023-02-13T23:21:51;9.50;58.80
1506;DHT22;744;51.436;7.356;2023-02-13T23:24:17;9.60;58.70
1506;DHT22;744;51.436;7.356;2023-02-13T23:26:44;9.60;58.50
1506;DHT22;744;51.436;7.356;2023-02-13T23:29:11;9.60;58.30
1506;DHT22;744;51.436;7.356;2023-02-13T23:31:38;9.60;58.20
1506;DHT22;744;51.436;7.356;2023-02-13T23:34:05;9.60;58.20
1506;DHT22;744;51.436;7.356;2023-02-13T23:36:32;9.50;58.10
1506;DHT22;744;51.436;7.356;2023-02-13T23:38:59;9.50;57.90
1506;DHT22;744;51.436;7.356;2023-02-13T23:41:27;9.50;58.40
1506;DHT22;744;51.436;7.356;2023-02-13T23:43:54;9.40;57.50
1506;DHT22;744;51.436;7.356;2023-02-13T23:46:20;9.50;57.50
1506;DHT22;744;51.436;7.356;2023-02-13T23:48:47;9.50;57.30
1506;DHT22;744;51.436;7.356;2023-02-13T23:51:14;9.50;57.10
1506;DHT22;744;51.436;7.356;2023-02-13T23:53:41;9.50;56.70
1506;DHT22;744;51.436;7.356;2023-02-13T23:56:07;9.40;56.40
1506;DHT22;744;51.436;7.356;2023-02-13T23:58:34;9.40;56.40
